M I D A S
Marine Information and Data Acquisition System
Tripno 220 of the Zeeleeuw from 2002-02-21 08:39:20 to 2002-02-21 10:52:40
Back to CruiseResearch ActivitiesStationsMapUnderway DataData graphs

EquipmentUnitsComment
TimeDGPSUTC
LatitudeDGPSDM.mWGS84
LongitudeDGPSDM.mWGS84
TemperatureSBE03/SBE38deg celciusITS90
ConductivitySBE21S/mITS90
SalinitySBE21 Practical Salinity Units
ChlorophylAChelsea fluorimeterg/lCalibrated in Aceton
Missing or incorrect values are displayed as -999
Sea surface data collected by the RV Zeeleeuw from 2002-02-21 08:39:20 to 2002-02-21 10:52:40
Time Latitude Longitude Temperature Conductivity Salinity ChlorophylA
2002-02-21 08:40:22 51°13.698 2°55.845 7.646924 1.099636 6.874574  
2002-02-21 08:41:21 51°13.71 2°55.735 7.234299 1.864105 16.315953  
2002-02-21 08:42:21 51°13.737 2°55.707 7.137737 1.349204 11.956419  
2002-02-21 08:43:21 51°13.851 2°55.617 7.165383 0.83548 7.162673  
2002-02-21 08:44:21 51°13.99 2°55.515 7.218289 1.530298 13.752033  
2002-02-21 08:45:21 51°14.13 2°55.41 7.245068 1.711124 15.549052  
2002-02-21 08:46:21 51°14.254 2°55.271 7.192919 1.443372 12.920869  
2002-02-21 08:47:21 51°14.35 2°55.078 7.237187 1.406797 12.590177  
2002-02-21 08:48:21 51°14.448 2°54.919 7.070533 2.686241 25.531193  
2002-02-21 08:49:21 51°14.552 2°54.896 6.99687 2.737868 26.163945  
2002-02-21 08:50:21 51°14.644 2°54.891 7.052223 3.174394 30.767625  
2002-02-21 08:51:21 51°14.75 2°54.892 7.091045 3.210945 31.153172  
2002-02-21 08:52:21 51°14.859 2°54.912 7.117828 3.223764 31.274102  
2002-02-21 08:53:21 51°14.962 2°54.9 7.160825 3.238085 31.436449  
2002-02-21 08:54:21 51°15.063 2°54.862 7.207809 3.266326 31.653729  
2002-02-21 08:55:21 51°15.174 2°54.795 7.224948 3.281749 31.777598  
2002-02-21 08:56:21 51°15.307 2°54.723 7.254514 3.292065 31.8891  
2002-02-21 08:57:21 51°15.441 2°54.67 7.18998 3.297473 31.951837  
2002-02-21 08:58:21 51°15.581 2°54.637 7.196005 3.309092 32.101654  
2002-02-21 08:59:21 51°15.714 2°54.589 7.241152 3.315702 32.161794  
2002-02-21 09:00:21 51°15.844 2°54.529 7.229795 3.319408 32.198516  
2002-02-21 09:01:21 51°15.981 2°54.469 7.285925 3.331728 32.294892  
2002-02-21 09:02:21 51°16.119 2°54.388 7.252801 3.311395 32.087361  
2002-02-21 09:03:21 51°16.253 2°54.308 7.217506 3.271133 31.669867  
2002-02-21 09:04:21 51°16.307 2°54.266 7.225046 3.271333 31.667393  
2002-02-21 09:05:20 51°16.312 2°54.243 7.265916 3.269931 31.648505  
2002-02-21 09:06:21 51°16.306 2°54.223 7.22862 3.273937 31.690701  
2002-02-21 09:07:21 51°16.292 2°54.202 7.234005 3.286356 31.819302  
2002-02-21 09:08:21 51°16.277 2°54.178 7.233467 3.302581 31.991139  
2002-02-21 09:09:21 51°16.268 2°54.161 7.230774 3.296772 31.932653  
2002-02-21 09:10:21 51°16.265 2°54.142 7.274674 3.292566 31.88827  
2002-02-21 09:11:21 51°16.267 2°54.116 7.274674 3.294569 31.905894  
2002-02-21 09:12:21 51°16.269 2°54.095 7.292577 3.311195 32.076627  
2002-02-21 09:13:21 51°16.271 2°54.076 7.25192 3.320109 32.162216  
2002-02-21 09:14:21 51°16.273 2°54.062 7.250697 3.322012 32.184222  
2002-02-21 09:15:21 51°16.271 2°54.047 7.241985 3.313198 32.09424  
2002-02-21 09:16:21 51°16.267 2°54.027 7.23846 3.290262 31.856571  
2002-02-21 09:17:21 51°16.262 2°54.003 7.281523 3.287758 31.829704  
2002-02-21 09:18:21 51°16.259 2°53.978 7.28886 3.297373 31.927457  
2002-02-21 09:19:21 51°16.251 2°53.956 7.251186 3.303482 31.989927  
2002-02-21 09:20:21 51°16.235 2°53.934 7.296637 3.313398 32.08937  
2002-02-21 09:21:21 51°16.216 2°53.909 7.251871 3.32111 32.172974  
2002-02-21 09:22:21 51°16.194 2°53.88 7.326854 3.311695 32.075766  
2002-02-21 09:23:21 51°16.172 2°53.852 7.279517 3.317705 32.14343  
2002-02-21 09:24:20 51°16.161 2°53.847 7.316832 3.309292 32.058529  
2002-02-21 09:25:21 51°16.139 2°53.886 7.241348 3.311996 32.086013  
2002-02-21 09:26:21 51°16.132 2°53.978 7.284164 3.291464 31.86327  
2002-02-21 09:27:21 51°16.11 2°54.106 7.23332 3.284052 31.783763  
2002-02-21 09:28:21 51°16.098 2°54.244 7.22299 3.273236 31.673937  
2002-02-21 09:29:21 51°16.089 2°54.394 7.26709 3.267727 31.625646  
2002-02-21 09:30:21 51°16.085 2°54.544 7.359744 3.286857 31.82158  
2002-02-21 09:31:21 51°16.074 2°54.692 7.292969 3.336535 32.308087  
2002-02-21 09:32:21 51°16.069 2°54.839 7.290132 3.336034 32.294867  
2002-02-21 09:33:21 51°16.058 2°54.99 7.336581 3.332929 32.263885  
2002-02-21 09:34:21 51°16.071 2°55.134 7.363018 3.331727 32.245503  
2002-02-21 09:35:21 51°16.092 2°55.274 7.327245 3.324215 32.175828  
2002-02-21 09:36:21 51°16.129 2°55.405 7.280936 3.317604 32.104112  
2002-02-21 09:37:21 51°16.166 2°55.535 7.395157 3.310593 32.034347  
2002-02-21 09:38:21 51°16.204 2°55.66 7.234495 3.305585 31.986069  
2002-02-21 09:39:21 51°16.218 2°55.794 7.203304 3.237182 31.337196  
2002-02-21 09:40:21 51°16.251 2°55.867 7.192184 3.220558 31.171931  
2002-02-21 09:41:21 51°16.274 2°55.921 7.226074 3.211145 31.082419  
2002-02-21 09:42:21 51°16.287 2°55.963 7.143473 3.209843 31.073011  
2002-02-21 09:43:21 51°16.29 2°55.976 7.142493 3.209342 31.064616  
2002-02-21 09:44:21 51°16.287 2°55.973 7.143865 3.210744 31.082672  
2002-02-21 09:45:21 51°16.296 2°55.985 7.150434 3.211846 31.095237  
2002-02-21 09:46:21 51°16.307 2°56.056 7.148816 3.211746 31.090374  
2002-02-21 09:47:21 51°16.271 2°56.142 7.14666 3.211445 31.086397  
2002-02-21 09:48:21 51°16.206 2°56.175 7.157394 3.209643 31.070865  
2002-02-21 09:49:21 51°16.131 2°56.152 7.161266 3.215251 31.121875  
2002-02-21 09:50:21 51°16.068 2°56.076 7.162688 3.220358 31.169784  
2002-02-21 09:51:21 51°16.028 2°55.979 7.201687 3.224464 31.214556  
2002-02-21 09:52:21 51°16.002 2°55.881 7.162541 3.224364 31.214242  
2002-02-21 09:53:21 51°15.987 2°55.802 7.208544 3.223562 31.203373  
2002-02-21 09:54:21 51°15.98 2°55.738 7.210062 3.227668 31.242061  
2002-02-21 09:55:21 51°15.977 2°55.681 7.167049 3.229771 31.264606  
2002-02-21 09:56:21 51°15.975 2°55.623 7.208838 3.230773 31.279914  
2002-02-21 09:57:21 51°15.974 2°55.566 7.211091 3.227468 31.240675  
2002-02-21 09:58:21 51°15.973 2°55.511 7.170333 3.227067 31.232577  
2002-02-21 09:59:21 51°15.973 2°55.458 7.165971 3.228069 31.247878  
2002-02-21 10:00:21 51°15.977 2°55.4 7.167049 3.229771 31.269176  
2002-02-21 10:01:21 51°15.983 2°55.337 7.174449 3.224764 31.210172  
2002-02-21 10:02:21 51°15.995 2°55.283 7.172097 3.224964 31.209278  
2002-02-21 10:03:21 51°16.007 2°55.236 7.163325 3.22206 31.181954  
2002-02-21 10:04:21 51°16.025 2°55.192 7.194536 3.220859 31.181229  
2002-02-21 10:05:21 51°16.04 2°55.149 7.188755 3.215451 31.128574  
2002-02-21 10:06:21 51°16.058 2°55.102 7.149454 3.212747 31.103382  
2002-02-21 10:07:21 51°16.076 2°55.06 7.191646 3.212747 31.098834  
2002-02-21 10:08:21 51°16.093 2°55.02 7.163129 3.214049 31.110513  
2002-02-21 10:09:21 51°16.108 2°54.987 7.198161 3.217354 31.139863  
2002-02-21 10:10:21 51°16.125 2°54.954 7.169598 3.216653 31.133867  
2002-02-21 10:11:21 51°16.14 2°54.92 7.157198 3.212046 31.080716  
2002-02-21 10:12:21 51°16.174 2°54.92 7.232145 3.219457 31.168478  
2002-02-21 10:13:21 51°16.181 2°54.996 7.23846 3.210143 31.067901  
2002-02-21 10:14:20 51°16.122 2°55.065 7.164893 3.208441 31.043608  
2002-02-21 10:15:21 51°16.025 2°55.037 7.154797 3.208841 31.047142  
2002-02-21 10:16:21 51°15.963 2°54.923 7.192429 3.210444 31.068092  
2002-02-21 10:17:21 51°15.934 2°54.831 7.151513 3.212547 31.095929  
2002-02-21 10:18:21 51°15.912 2°54.758 7.23004 3.212346 31.093783  
2002-02-21 10:19:21 51°15.89 2°54.697 7.187384 3.213148 31.103885  
2002-02-21 10:20:21 51°15.871 2°54.643 7.231362 3.21505 31.12428  
2002-02-21 10:21:21 51°15.854 2°54.594 7.146463 3.216052 31.131979  
2002-02-21 10:22:21 51°15.836 2°54.549 7.222892 3.216553 31.144177  
2002-02-21 10:23:21 51°15.819 2°54.506 7.187531 3.214149 31.116894  
2002-02-21 10:24:21 51°15.801 2°54.467 7.191989 3.214049 31.109754  
2002-02-21 10:25:21 51°15.781 2°54.428 7.151807 3.213949 31.108681  
2002-02-21 10:26:21 51°15.765 2°54.388 7.149748 3.21485 31.118341  
2002-02-21 10:27:21 51°15.746 2°54.351 7.190127 3.215851 31.130591  
2002-02-21 10:28:21 51°15.727 2°54.314 7.151562 3.219156 31.165257  
2002-02-21 10:29:21 51°15.709 2°54.282 7.149699 3.221359 31.188116  
2002-02-21 10:30:21 51°15.69 2°54.25 7.189735 3.217854 31.151301  
2002-02-21 10:31:21 51°15.665 2°54.196 7.189882 3.220258 31.177066  
2002-02-21 10:32:21 51°15.543 2°54.154 7.157149 3.222361 31.198093  
2002-02-21 10:33:21 51°15.373 2°54.233 7.177193 3.228069 31.241029  
2002-02-21 10:34:21 51°15.174 2°54.345 7.17097 3.241088 31.376784  
2002-02-21 10:35:21 51°14.964 2°54.436 7.139551 3.241389 31.396062  
2002-02-21 10:36:21 51°14.774 2°54.599 7.115082 3.197726 30.953739  
2002-02-21 10:37:21 51°14.593 2°54.775 7.160237 3.16438 30.616846  
2002-02-21 10:38:21 51°14.439 2°54.967 7.092222 3.146557 30.479647  
2002-02-21 10:39:21 51°14.317 2°55.178 7.150189 2.429501 22.910151  
2002-02-21 10:40:21 51°14.232 2°55.313 7.171068 1.351795 12.076895  
2002-02-21 10:41:21 51°14.166 2°55.388 7.094675 1.416563 12.71149  
2002-02-21 10:42:21 51°14.094 2°55.442 7.154601 1.153923 10.191826  
2002-02-21 10:43:21 51°13.999 2°55.509 7.080053 1.25448 11.161364  
2002-02-21 10:44:21 51°13.9 2°55.58 6.998884 1.044564 9.166509  
2002-02-21 10:45:21 51°13.803 2°55.655 6.937977 1.054512 9.290895  
2002-02-21 10:46:21 51°13.745 2°55.737 6.997361 0.573002 4.821818  
2002-02-21 10:47:21 51°13.716 2°55.794 7.150434 0.008458 0.05986  
2002-02-21 10:48:21 51°13.702 2°55.85 7.163962 0.135563 0.846979  
2002-02-21 10:49:21 51°13.691 2°55.899 7.683345 0.101595 0.624421  
2002-02-21 10:50:21 51°13.689 2°55.905 7.581519 0.089453 0.549728  
2002-02-21 10:51:22 51°13.689 2°55.905 7.756076 0.082643 0.507367  
2002-02-21 10:52:22 51°13.689 2°55.905 7.924445 0.078991 0.48455